sensor_id;sensor_type;location;lat;lon;timestamp;P1;durP1;ratioP1;P2;durP2;ratioP2
53044;SDS011;38930;52.766;6.884;2023-05-10T00:01:22;7.78;;;6.00;;
53044;SDS011;38930;52.766;6.884;2023-05-10T00:03:48;5.68;;;4.25;;
53044;SDS011;38930;52.766;6.884;2023-05-10T00:06:14;6.20;;;4.40;;
53044;SDS011;38930;52.766;6.884;2023-05-10T00:08:39;5.90;;;4.63;;
53044;SDS011;38930;52.766;6.884;2023-05-10T00:11:05;5.57;;;4.87;;
53044;SDS011;38930;52.766;6.884;2023-05-10T00:13:31;6.97;;;5.03;;
53044;SDS011;38930;52.766;6.884;2023-05-10T00:15:57;6.05;;;3.92;;
53044;SDS011;38930;52.766;6.884;2023-05-10T00:18:22;5.77;;;5.17;;
53044;SDS011;38930;52.766;6.884;2023-05-10T00:20:48;8.50;;;5.13;;
53044;SDS011;38930;52.766;6.884;2023-05-10T00:23:14;5.73;;;5.03;;
53044;SDS011;38930;52.766;6.884;2023-05-10T00:25:40;5.93;;;4.83;;
53044;SDS011;38930;52.766;6.884;2023-05-10T00:28:05;7.33;;;5.50;;
53044;SDS011;38930;52.766;6.884;2023-05-10T00:30:31;8.27;;;4.50;;
53044;SDS011;38930;52.766;6.884;2023-05-10T00:32:56;5.93;;;4.93;;
53044;SDS011;38930;52.766;6.884;2023-05-10T00:35:22;8.07;;;5.03;;
53044;SDS011;38930;52.766;6.884;2023-05-10T00:37:47;8.38;;;6.38;;
53044;SDS011;38930;52.766;6.884;2023-05-10T00:40:13;5.33;;;4.60;;
53044;SDS011;38930;52.766;6.884;2023-05-10T00:42:39;6.47;;;5.00;;
53044;SDS011;38930;52.766;6.884;2023-05-10T00:45:05;6.00;;;5.10;;
53044;SDS011;38930;52.766;6.884;2023-05-10T00:47:31;7.25;;;4.90;;
53044;SDS011;38930;52.766;6.884;2023-05-10T00:49:58;10.15;;;5.45;;
53044;SDS011;38930;52.766;6.884;2023-05-10T00:52:25;6.68;;;5.05;;
53044;SDS011;38930;52.766;6.884;2023-05-10T00:54:52;8.70;;;4.88;;
53044;SDS011;38930;52.766;6.884;2023-05-10T00:57:18;7.68;;;5.68;;
53044;SDS011;38930;52.766;6.884;2023-05-10T00:59:44;7.28;;;4.88;;
53044;SDS011;38930;52.766;6.884;2023-05-10T01:02:10;7.43;;;5.22;;
53044;SDS011;38930;52.766;6.884;2023-05-10T01:04:36;7.57;;;5.20;;
53044;SDS011;38930;52.766;6.884;2023-05-10T01:07:03;6.13;;;4.75;;
53044;SDS011;38930;52.766;6.884;2023-05-10T01:09:28;7.07;;;4.82;;
53044;SDS011;38930;52.766;6.884;2023-05-10T01:11:54;7.45;;;5.85;;
53044;SDS011;38930;52.766;6.884;2023-05-10T01:14:21;6.85;;;5.30;;
53044;SDS011;38930;52.766;6.884;2023-05-10T01:16:47;7.13;;;5.30;;
53044;SDS011;38930;52.766;6.884;2023-05-10T01:19:25;7.57;;;5.45;;
53044;SDS011;38930;52.766;6.884;2023-05-10T01:27:35;7.60;;;5.55;;
53044;SDS011;38930;52.766;6.884;2023-05-10T01:35:51;6.43;;;4.90;;
53044;SDS011;38930;52.766;6.884;2023-05-10T01:41:49;9.05;;;6.22;;
53044;SDS011;38930;52.766;6.884;2023-05-10T01:46:47;7.85;;;5.80;;
53044;SDS011;38930;52.766;6.884;2023-05-10T01:49:29;9.23;;;5.93;;
53044;SDS011;38930;52.766;6.884;2023-05-10T01:52:03;6.97;;;5.28;;
53044;SDS011;38930;52.766;6.884;2023-05-10T01:54:34;9.93;;;5.82;;
53044;SDS011;38930;52.766;6.884;2023-05-10T01:57:03;7.40;;;5.30;;
53044;SDS011;38930;52.766;6.884;2023-05-10T01:59:34;8.68;;;5.57;;
53044;SDS011;38930;52.766;6.884;2023-05-10T02:02:02;7.97;;;5.90;;
53044;SDS011;38930;52.766;6.884;2023-05-10T02:04:29;9.60;;;5.70;;
53044;SDS011;38930;52.766;6.884;2023-05-10T02:06:56;6.18;;;4.57;;
53044;SDS011;38930;52.766;6.884;2023-05-10T02:09:22;6.70;;;5.45;;
53044;SDS011;38930;52.766;6.884;2023-05-10T02:11:50;8.60;;;6.07;;
53044;SDS011;38930;52.766;6.884;2023-05-10T02:14:16;7.03;;;5.23;;
53044;SDS011;38930;52.766;6.884;2023-05-10T02:16:44;7.13;;;5.25;;
53044;SDS011;38930;52.766;6.884;2023-05-10T02:21:37;7.93;;;5.20;;
53044;SDS011;38930;52.766;6.884;2023-05-10T02:24:04;8.13;;;4.68;;
53044;SDS011;38930;52.766;6.884;2023-05-10T02:26:31;6.63;;;4.95;;
53044;SDS011;38930;52.766;6.884;2023-05-10T02:28:59;6.95;;;4.85;;
53044;SDS011;38930;52.766;6.884;2023-05-10T02:31:28;9.50;;;4.88;;
53044;SDS011;38930;52.766;6.884;2023-05-10T02:33:56;6.53;;;4.72;;
53044;SDS011;38930;52.766;6.884;2023-05-10T02:38:49;6.47;;;4.70;;
53044;SDS011;38930;52.766;6.884;2023-05-10T02:41:17;9.88;;;4.80;;
53044;SDS011;38930;52.766;6.884;2023-05-10T02:43:44;7.45;;;4.55;;
53044;SDS011;38930;52.766;6.884;2023-05-10T02:46:12;7.68;;;5.22;;
53044;SDS011;38930;52.766;6.884;2023-05-10T02:48:37;6.30;;;4.67;;
53044;SDS011;38930;52.766;6.884;2023-05-10T02:51:04;6.32;;;4.50;;
53044;SDS011;38930;52.766;6.884;2023-05-10T02:53:33;6.50;;;4.50;;
53044;SDS011;38930;52.766;6.884;2023-05-10T02:56:01;5.90;;;4.07;;
53044;SDS011;38930;52.766;6.884;2023-05-10T02:58:33;6.32;;;4.63;;
53044;SDS011;38930;52.766;6.884;2023-05-10T03:00:59;8.20;;;4.57;;
53044;SDS011;38930;52.766;6.884;2023-05-10T03:03:25;6.93;;;4.63;;
53044;SDS011;38930;52.766;6.884;2023-05-10T03:05:51;8.35;;;4.50;;
53044;SDS011;38930;52.766;6.884;2023-05-10T03:08:20;9.10;;;5.00;;
53044;SDS011;38930;52.766;6.884;2023-05-10T03:13:39;6.35;;;4.50;;
53044;SDS011;38930;52.766;6.884;2023-05-10T03:16:24;5.20;;;3.92;;
53044;SDS011;38930;52.766;6.884;2023-05-10T03:21:26;6.97;;;4.55;;
53044;SDS011;38930;52.766;6.884;2023-05-10T03:23:58;5.85;;;4.32;;
53044;SDS011;38930;52.766;6.884;2023-05-10T03:26:27;6.55;;;4.45;;
53044;SDS011;38930;52.766;6.884;2023-05-10T03:28:54;6.18;;;4.47;;
53044;SDS011;38930;52.766;6.884;2023-05-10T03:31:20;6.47;;;4.70;;
53044;SDS011;38930;52.766;6.884;2023-05-10T03:33:49;7.00;;;3.97;;
53044;SDS011;38930;52.766;6.884;2023-05-10T03:36:16;9.57;;;4.68;;
53044;SDS011;38930;52.766;6.884;2023-05-10T03:38:41;6.63;;;4.23;;
53044;SDS011;38930;52.766;6.884;2023-05-10T03:41:07;7.18;;;4.63;;
53044;SDS011;38930;52.766;6.884;2023-05-10T03:43:33;6.95;;;4.53;;
53044;SDS011;38930;52.766;6.884;2023-05-10T03:45:58;5.67;;;4.00;;
53044;SDS011;38930;52.766;6.884;2023-05-10T03:48:27;6.78;;;3.80;;
53044;SDS011;38930;52.766;6.884;2023-05-10T03:50:52;6.40;;;3.87;;
53044;SDS011;38930;52.766;6.884;2023-05-10T03:53:18;6.35;;;4.32;;
53044;SDS011;38930;52.766;6.884;2023-05-10T03:55:44;7.22;;;4.40;;
53044;SDS011;38930;52.766;6.884;2023-05-10T03:58:13;6.03;;;4.40;;
53044;SDS011;38930;52.766;6.884;2023-05-10T04:00:38;8.02;;;4.07;;
53044;SDS011;38930;52.766;6.884;2023-05-10T04:03:08;7.68;;;4.45;;
53044;SDS011;38930;52.766;6.884;2023-05-10T04:05:34;5.83;;;3.83;;
53044;SDS011;38930;52.766;6.884;2023-05-10T04:08:00;6.03;;;4.10;;
53044;SDS011;38930;52.766;6.884;2023-05-10T04:10:26;7.28;;;4.47;;
53044;SDS011;38930;52.766;6.884;2023-05-10T04:12:52;5.87;;;4.20;;
53044;SDS011;38930;52.766;6.884;2023-05-10T04:15:17;5.90;;;4.43;;
53044;SDS011;38930;52.766;6.884;2023-05-10T04:17:43;5.38;;;4.30;;
53044;SDS011;38930;52.766;6.884;2023-05-10T04:20:09;4.93;;;3.65;;
53044;SDS011;38930;52.766;6.884;2023-05-10T04:22:35;5.78;;;4.28;;
53044;SDS011;38930;52.766;6.884;2023-05-10T04:25:00;6.17;;;4.53;;
53044;SDS011;38930;52.766;6.884;2023-05-10T04:27:26;7.18;;;4.90;;
53044;SDS011;38930;52.766;6.884;2023-05-10T04:29:52;8.88;;;4.30;;
53044;SDS011;38930;52.766;6.884;2023-05-10T04:32:17;7.03;;;4.88;;
53044;SDS011;38930;52.766;6.884;2023-05-10T04:34:43;7.03;;;4.70;;
53044;SDS011;38930;52.766;6.884;2023-05-10T04:37:09;6.25;;;4.35;;
53044;SDS011;38930;52.766;6.884;2023-05-10T04:39:35;5.87;;;4.33;;
53044;SDS011;38930;52.766;6.884;2023-05-10T04:42:03;8.80;;;5.07;;
53044;SDS011;38930;52.766;6.884;2023-05-10T04:44:30;6.93;;;5.28;;
53044;SDS011;38930;52.766;6.884;2023-05-10T04:46:56;9.57;;;5.95;;
53044;SDS011;38930;52.766;6.884;2023-05-10T04:49:22;8.45;;;5.25;;
53044;SDS011;38930;52.766;6.884;2023-05-10T04:51:48;8.07;;;5.57;;
53044;SDS011;38930;52.766;6.884;2023-05-10T04:54:13;8.05;;;5.55;;
53044;SDS011;38930;52.766;6.884;2023-05-10T04:56:39;8.65;;;5.65;;
53044;SDS011;38930;52.766;6.884;2023-05-10T04:59:05;7.10;;;5.23;;
53044;SDS011;38930;52.766;6.884;2023-05-10T05:01:31;8.10;;;5.20;;
53044;SDS011;38930;52.766;6.884;2023-05-10T05:03:57;6.87;;;5.10;;
53044;SDS011;38930;52.766;6.884;2023-05-10T05:06:23;8.52;;;5.07;;
53044;SDS011;38930;52.766;6.884;2023-05-10T05:08:50;8.63;;;6.00;;
53044;SDS011;38930;52.766;6.884;2023-05-10T05:11:15;6.53;;;5.23;;
53044;SDS011;38930;52.766;6.884;2023-05-10T05:13:41;10.17;;;5.87;;
53044;SDS011;38930;52.766;6.884;2023-05-10T05:16:07;9.57;;;6.35;;
53044;SDS011;38930;52.766;6.884;2023-05-10T05:18:33;6.90;;;4.75;;
53044;SDS011;38930;52.766;6.884;2023-05-10T05:20:58;6.82;;;5.25;;
53044;SDS011;38930;52.766;6.884;2023-05-10T05:23:24;9.48;;;5.60;;
53044;SDS011;38930;52.766;6.884;2023-05-10T05:25:52;9.20;;;6.00;;
53044;SDS011;38930;52.766;6.884;2023-05-10T05:28:21;8.88;;;5.80;;
53044;SDS011;38930;52.766;6.884;2023-05-10T05:30:47;7.90;;;4.93;;
53044;SDS011;38930;52.766;6.884;2023-05-10T05:33:15;7.77;;;5.33;;
53044;SDS011;38930;52.766;6.884;2023-05-10T05:35:41;8.40;;;5.22;;
53044;SDS011;38930;52.766;6.884;2023-05-10T05:38:09;10.50;;;5.10;;
53044;SDS011;38930;52.766;6.884;2023-05-10T05:40:35;7.17;;;4.33;;
53044;SDS011;38930;52.766;6.884;2023-05-10T05:43:00;8.05;;;4.60;;
53044;SDS011;38930;52.766;6.884;2023-05-10T05:45:26;8.30;;;5.43;;
53044;SDS011;38930;52.766;6.884;2023-05-10T05:47:51;8.47;;;4.50;;
53044;SDS011;38930;52.766;6.884;2023-05-10T05:50:17;6.57;;;4.47;;
53044;SDS011;38930;52.766;6.884;2023-05-10T05:52:42;8.07;;;4.75;;
53044;SDS011;38930;52.766;6.884;2023-05-10T05:55:08;8.88;;;5.43;;
53044;SDS011;38930;52.766;6.884;2023-05-10T05:57:34;8.82;;;4.68;;
53044;SDS011;38930;52.766;6.884;2023-05-10T05:59:59;8.98;;;3.78;;
53044;SDS011;38930;52.766;6.884;2023-05-10T06:02:25;8.50;;;4.50;;
53044;SDS011;38930;52.766;6.884;2023-05-10T06:04:50;8.15;;;4.22;;
53044;SDS011;38930;52.766;6.884;2023-05-10T06:07:16;7.47;;;4.23;;
53044;SDS011;38930;52.766;6.884;2023-05-10T06:09:42;11.43;;;5.00;;
53044;SDS011;38930;52.766;6.884;2023-05-10T06:12:07;6.63;;;4.57;;
53044;SDS011;38930;52.766;6.884;2023-05-10T06:14:33;5.60;;;4.47;;
53044;SDS011;38930;52.766;6.884;2023-05-10T06:16:58;6.73;;;3.90;;
53044;SDS011;38930;52.766;6.884;2023-05-10T06:19:25;10.13;;;4.90;;
53044;SDS011;38930;52.766;6.884;2023-05-10T06:21:51;6.03;;;4.47;;
53044;SDS011;38930;52.766;6.884;2023-05-10T06:24:17;6.60;;;4.30;;
53044;SDS011;38930;52.766;6.884;2023-05-10T06:26:42;7.35;;;4.82;;
53044;SDS011;38930;52.766;6.884;2023-05-10T06:29:08;9.13;;;4.30;;
53044;SDS011;38930;52.766;6.884;2023-05-10T06:31:33;6.93;;;4.80;;
53044;SDS011;38930;52.766;6.884;2023-05-10T06:33:59;8.20;;;3.97;;
53044;SDS011;38930;52.766;6.884;2023-05-10T06:36:25;6.43;;;4.28;;
53044;SDS011;38930;52.766;6.884;2023-05-10T06:38:51;8.07;;;4.38;;
53044;SDS011;38930;52.766;6.884;2023-05-10T06:41:17;10.05;;;4.68;;
53044;SDS011;38930;52.766;6.884;2023-05-10T06:43:42;7.70;;;4.22;;
53044;SDS011;38930;52.766;6.884;2023-05-10T06:46:08;6.15;;;3.88;;
53044;SDS011;38930;52.766;6.884;2023-05-10T06:48:34;7.83;;;4.37;;
53044;SDS011;38930;52.766;6.884;2023-05-10T06:50:59;7.20;;;3.85;;
53044;SDS011;38930;52.766;6.884;2023-05-10T06:53:25;6.17;;;3.50;;
53044;SDS011;38930;52.766;6.884;2023-05-10T06:55:51;7.07;;;4.27;;
53044;SDS011;38930;52.766;6.884;2023-05-10T06:58:17;5.88;;;4.20;;
53044;SDS011;38930;52.766;6.884;2023-05-10T07:00:42;8.85;;;4.65;;
53044;SDS011;38930;52.766;6.884;2023-05-10T07:03:09;7.47;;;3.60;;
53044;SDS011;38930;52.766;6.884;2023-05-10T07:08:01;6.47;;;3.97;;
53044;SDS011;38930;52.766;6.884;2023-05-10T07:10:26;6.32;;;3.80;;
53044;SDS011;38930;52.766;6.884;2023-05-10T07:12:52;8.20;;;3.97;;
53044;SDS011;38930;52.766;6.884;2023-05-10T07:15:17;8.00;;;4.60;;
53044;SDS011;38930;52.766;6.884;2023-05-10T07:17:43;11.05;;;4.20;;
53044;SDS011;38930;52.766;6.884;2023-05-10T07:20:09;5.80;;;3.20;;
53044;SDS011;38930;52.766;6.884;2023-05-10T07:22:35;5.83;;;3.80;;
53044;SDS011;38930;52.766;6.884;2023-05-10T07:25:01;5.43;;;3.50;;
53044;SDS011;38930;52.766;6.884;2023-05-10T07:27:27;4.75;;;3.22;;
53044;SDS011;38930;52.766;6.884;2023-05-10T07:29:52;6.37;;;3.47;;
53044;SDS011;38930;52.766;6.884;2023-05-10T07:32:19;7.70;;;3.40;;
53044;SDS011;38930;52.766;6.884;2023-05-10T07:34:45;10.00;;;3.40;;
53044;SDS011;38930;52.766;6.884;2023-05-10T07:37:11;5.50;;;3.15;;
53044;SDS011;38930;52.766;6.884;2023-05-10T07:39:36;6.88;;;3.72;;
53044;SDS011;38930;52.766;6.884;2023-05-10T07:42:02;6.47;;;3.65;;
53044;SDS011;38930;52.766;6.884;2023-05-10T07:44:28;6.63;;;3.33;;
53044;SDS011;38930;52.766;6.884;2023-05-10T07:46:54;6.13;;;3.50;;
53044;SDS011;38930;52.766;6.884;2023-05-10T07:49:20;5.20;;;3.30;;
53044;SDS011;38930;52.766;6.884;2023-05-10T07:51:46;9.63;;;3.53;;
53044;SDS011;38930;52.766;6.884;2023-05-10T07:54:12;6.05;;;3.30;;
53044;SDS011;38930;52.766;6.884;2023-05-10T07:56:38;5.95;;;3.13;;
53044;SDS011;38930;52.766;6.884;2023-05-10T07:59:06;6.97;;;3.30;;
53044;SDS011;38930;52.766;6.884;2023-05-10T08:01:33;5.73;;;3.20;;
53044;SDS011;38930;52.766;6.884;2023-05-10T08:03:59;7.18;;;3.50;;
53044;SDS011;38930;52.766;6.884;2023-05-10T08:08:53;7.15;;;3.35;;
53044;SDS011;38930;52.766;6.884;2023-05-10T08:11:19;4.80;;;3.33;;
53044;SDS011;38930;52.766;6.884;2023-05-10T08:16:11;7.32;;;3.38;;
53044;SDS011;38930;52.766;6.884;2023-05-10T08:18:37;5.43;;;3.63;;
53044;SDS011;38930;52.766;6.884;2023-05-10T08:21:04;5.90;;;3.38;;
53044;SDS011;38930;52.766;6.884;2023-05-10T08:23:29;4.50;;;3.07;;
53044;SDS011;38930;52.766;6.884;2023-05-10T08:25:55;6.90;;;3.70;;
53044;SDS011;38930;52.766;6.884;2023-05-10T08:28:21;6.13;;;3.40;;
53044;SDS011;38930;52.766;6.884;2023-05-10T08:30:46;6.10;;;3.30;;
53044;SDS011;38930;52.766;6.884;2023-05-10T08:33:12;5.30;;;2.92;;
53044;SDS011;38930;52.766;6.884;2023-05-10T08:35:37;4.95;;;2.75;;
53044;SDS011;38930;52.766;6.884;2023-05-10T08:38:03;4.33;;;2.50;;
53044;SDS011;38930;52.766;6.884;2023-05-10T08:40:28;6.20;;;2.97;;
53044;SDS011;38930;52.766;6.884;2023-05-10T08:42:55;5.13;;;3.17;;
53044;SDS011;38930;52.766;6.884;2023-05-10T08:45:25;6.78;;;2.92;;
53044;SDS011;38930;52.766;6.884;2023-05-10T08:47:53;7.80;;;3.67;;
53044;SDS011;38930;52.766;6.884;2023-05-10T08:50:19;4.93;;;2.50;;
53044;SDS011;38930;52.766;6.884;2023-05-10T08:52:46;5.88;;;3.03;;
53044;SDS011;38930;52.766;6.884;2023-05-10T08:55:15;4.70;;;2.60;;
53044;SDS011;38930;52.766;6.884;2023-05-10T08:57:41;5.10;;;2.37;;
53044;SDS011;38930;52.766;6.884;2023-05-10T09:00:07;6.93;;;2.93;;
53044;SDS011;38930;52.766;6.884;2023-05-10T09:02:34;3.33;;;2.28;;
53044;SDS011;38930;52.766;6.884;2023-05-10T09:05:01;6.53;;;2.50;;
53044;SDS011;38930;52.766;6.884;2023-05-10T09:07:29;4.45;;;2.42;;
53044;SDS011;38930;52.766;6.884;2023-05-10T09:09:55;4.67;;;3.03;;
53044;SDS011;38930;52.766;6.884;2023-05-10T09:12:22;7.60;;;2.42;;
53044;SDS011;38930;52.766;6.884;2023-05-10T09:14:48;3.90;;;2.08;;
53044;SDS011;38930;52.766;6.884;2023-05-10T09:17:17;4.82;;;2.58;;
53044;SDS011;38930;52.766;6.884;2023-05-10T09:19:44;4.10;;;2.50;;
53044;SDS011;38930;52.766;6.884;2023-05-10T09:22:10;3.55;;;2.38;;
53044;SDS011;38930;52.766;6.884;2023-05-10T09:24:36;3.23;;;2.07;;
53044;SDS011;38930;52.766;6.884;2023-05-10T09:27:07;3.40;;;2.10;;
53044;SDS011;38930;52.766;6.884;2023-05-10T09:29:39;4.23;;;2.23;;
53044;SDS011;38930;52.766;6.884;2023-05-10T09:32:06;4.07;;;2.50;;
53044;SDS011;38930;52.766;6.884;2023-05-10T09:34:32;4.57;;;2.30;;
53044;SDS011;38930;52.766;6.884;2023-05-10T09:37:00;5.97;;;2.10;;
53044;SDS011;38930;52.766;6.884;2023-05-10T09:39:35;4.35;;;2.58;;
53044;SDS011;38930;52.766;6.884;2023-05-10T09:42:02;4.53;;;2.72;;
53044;SDS011;38930;52.766;6.884;2023-05-10T09:44:29;3.38;;;2.40;;
53044;SDS011;38930;52.766;6.884;2023-05-10T09:49:22;3.80;;;2.40;;
53044;SDS011;38930;52.766;6.884;2023-05-10T09:51:47;3.93;;;2.57;;
53044;SDS011;38930;52.766;6.884;2023-05-10T09:54:27;3.92;;;2.70;;
53044;SDS011;38930;52.766;6.884;2023-05-10T09:56:53;3.13;;;2.23;;
53044;SDS011;38930;52.766;6.884;2023-05-10T09:59:18;4.63;;;2.60;;
53044;SDS011;38930;52.766;6.884;2023-05-10T10:01:49;4.17;;;2.70;;
53044;SDS011;38930;52.766;6.884;2023-05-10T10:04:15;4.50;;;2.40;;
53044;SDS011;38930;52.766;6.884;2023-05-10T10:06:41;5.13;;;2.70;;
53044;SDS011;38930;52.766;6.884;2023-05-10T10:09:07;3.65;;;2.38;;
53044;SDS011;38930;52.766;6.884;2023-05-10T10:11:34;6.43;;;2.53;;
53044;SDS011;38930;52.766;6.884;2023-05-10T10:14:01;4.85;;;2.20;;
53044;SDS011;38930;52.766;6.884;2023-05-10T10:16:30;3.70;;;2.93;;
53044;SDS011;38930;52.766;6.884;2023-05-10T10:18:56;3.75;;;2.70;;
53044;SDS011;38930;52.766;6.884;2023-05-10T10:21:22;4.70;;;2.90;;
53044;SDS011;38930;52.766;6.884;2023-05-10T10:23:49;4.82;;;3.10;;
53044;SDS011;38930;52.766;6.884;2023-05-10T10:26:15;4.97;;;3.30;;
53044;SDS011;38930;52.766;6.884;2023-05-10T10:31:41;7.32;;;3.25;;
53044;SDS011;38930;52.766;6.884;2023-05-10T10:34:22;4.25;;;2.88;;
53044;SDS011;38930;52.766;6.884;2023-05-10T10:36:54;6.20;;;3.30;;
53044;SDS011;38930;52.766;6.884;2023-05-10T10:39:22;5.85;;;3.67;;
53044;SDS011;38930;52.766;6.884;2023-05-10T10:41:51;4.60;;;3.20;;
53044;SDS011;38930;52.766;6.884;2023-05-10T10:52:15;5.65;;;3.25;;
53044;SDS011;38930;52.766;6.884;2023-05-10T11:05:23;4.78;;;2.95;;
53044;SDS011;38930;52.766;6.884;2023-05-10T11:07:52;5.63;;;3.72;;
53044;SDS011;38930;52.766;6.884;2023-05-10T11:10:22;6.60;;;3.65;;
53044;SDS011;38930;52.766;6.884;2023-05-10T11:15:20;5.95;;;3.45;;
53044;SDS011;38930;52.766;6.884;2023-05-10T11:21:02;7.40;;;3.90;;
53044;SDS011;38930;52.766;6.884;2023-05-10T11:23:30;6.70;;;3.92;;
53044;SDS011;38930;52.766;6.884;2023-05-10T11:25:58;5.35;;;3.33;;
53044;SDS011;38930;52.766;6.884;2023-05-10T11:28:25;6.85;;;4.03;;
53044;SDS011;38930;52.766;6.884;2023-05-10T11:33:18;5.18;;;3.33;;
53044;SDS011;38930;52.766;6.884;2023-05-10T11:35:45;8.02;;;3.70;;
53044;SDS011;38930;52.766;6.884;2023-05-10T11:38:11;4.38;;;3.15;;
53044;SDS011;38930;52.766;6.884;2023-05-10T11:40:38;4.65;;;3.38;;
53044;SDS011;38930;52.766;6.884;2023-05-10T11:45:33;6.05;;;3.33;;
53044;SDS011;38930;52.766;6.884;2023-05-10T11:48:00;6.25;;;3.22;;
53044;SDS011;38930;52.766;6.884;2023-05-10T11:50:26;5.72;;;3.25;;
53044;SDS011;38930;52.766;6.884;2023-05-10T11:52:53;5.00;;;3.40;;
53044;SDS011;38930;52.766;6.884;2023-05-10T11:55:23;5.25;;;3.10;;
53044;SDS011;38930;52.766;6.884;2023-05-10T11:57:53;6.90;;;3.07;;
53044;SDS011;38930;52.766;6.884;2023-05-10T12:00:19;4.22;;;2.72;;
53044;SDS011;38930;52.766;6.884;2023-05-10T12:02:45;4.10;;;2.95;;
53044;SDS011;38930;52.766;6.884;2023-05-10T12:05:11;5.07;;;2.90;;
53044;SDS011;38930;52.766;6.884;2023-05-10T12:07:37;4.20;;;2.77;;
53044;SDS011;38930;52.766;6.884;2023-05-10T12:12:42;5.15;;;3.03;;
53044;SDS011;38930;52.766;6.884;2023-05-10T12:15:19;3.58;;;2.65;;
53044;SDS011;38930;52.766;6.884;2023-05-10T12:17:46;5.50;;;3.20;;
53044;SDS011;38930;52.766;6.884;2023-05-10T12:20:13;7.03;;;3.35;;
53044;SDS011;38930;52.766;6.884;2023-05-10T12:22:40;6.53;;;3.45;;
53044;SDS011;38930;52.766;6.884;2023-05-10T12:25:08;4.53;;;3.35;;
53044;SDS011;38930;52.766;6.884;2023-05-10T12:27:35;7.05;;;3.50;;
53044;SDS011;38930;52.766;6.884;2023-05-10T12:30:01;4.50;;;2.97;;
53044;SDS011;38930;52.766;6.884;2023-05-10T12:32:40;4.53;;;3.35;;
53044;SDS011;38930;52.766;6.884;2023-05-10T12:35:06;8.27;;;3.58;;
53044;SDS011;38930;52.766;6.884;2023-05-10T12:37:32;5.03;;;3.70;;
53044;SDS011;38930;52.766;6.884;2023-05-10T12:40:01;4.35;;;3.25;;
53044;SDS011;38930;52.766;6.884;2023-05-10T12:44:56;4.38;;;3.30;;
53044;SDS011;38930;52.766;6.884;2023-05-10T12:47:22;4.70;;;3.10;;
53044;SDS011;38930;52.766;6.884;2023-05-10T12:49:47;8.10;;;3.70;;
53044;SDS011;38930;52.766;6.884;2023-05-10T12:52:13;5.20;;;3.20;;
53044;SDS011;38930;52.766;6.884;2023-05-10T12:54:39;5.37;;;3.70;;
53044;SDS011;38930;52.766;6.884;2023-05-10T12:57:04;7.30;;;3.60;;
53044;SDS011;38930;52.766;6.884;2023-05-10T12:59:30;5.47;;;3.37;;
53044;SDS011;38930;52.766;6.884;2023-05-10T13:01:56;4.83;;;2.93;;
53044;SDS011;38930;52.766;6.884;2023-05-10T13:06:48;5.47;;;3.33;;
53044;SDS011;38930;52.766;6.884;2023-05-10T13:09:13;5.40;;;3.10;;
53044;SDS011;38930;52.766;6.884;2023-05-10T13:11:40;4.65;;;3.13;;
53044;SDS011;38930;52.766;6.884;2023-05-10T13:14:05;6.57;;;3.43;;
53044;SDS011;38930;52.766;6.884;2023-05-10T13:16:31;5.37;;;3.30;;
53044;SDS011;38930;52.766;6.884;2023-05-10T13:18:57;7.37;;;3.00;;
53044;SDS011;38930;52.766;6.884;2023-05-10T13:21:23;4.20;;;3.03;;
53044;SDS011;38930;52.766;6.884;2023-05-10T13:23:50;4.63;;;3.10;;
53044;SDS011;38930;52.766;6.884;2023-05-10T13:26:15;4.57;;;3.07;;
53044;SDS011;38930;52.766;6.884;2023-05-10T13:28:41;5.63;;;3.63;;
53044;SDS011;38930;52.766;6.884;2023-05-10T13:31:07;5.23;;;3.53;;
53044;SDS011;38930;52.766;6.884;2023-05-10T13:33:33;4.80;;;2.90;;
53044;SDS011;38930;52.766;6.884;2023-05-10T13:35:58;5.77;;;3.90;;
53044;SDS011;38930;52.766;6.884;2023-05-10T13:38:24;6.03;;;3.63;;
53044;SDS011;38930;52.766;6.884;2023-05-10T13:40:49;4.60;;;3.50;;
53044;SDS011;38930;52.766;6.884;2023-05-10T13:43:17;4.47;;;3.15;;
53044;SDS011;38930;52.766;6.884;2023-05-10T13:45:43;6.05;;;3.40;;
53044;SDS011;38930;52.766;6.884;2023-05-10T13:48:09;5.60;;;3.00;;
53044;SDS011;38930;52.766;6.884;2023-05-10T13:50:35;5.33;;;3.00;;
53044;SDS011;38930;52.766;6.884;2023-05-10T13:53:00;5.33;;;3.50;;
53044;SDS011;38930;52.766;6.884;2023-05-10T13:55:26;6.20;;;3.27;;
53044;SDS011;38930;52.766;6.884;2023-05-10T13:57:52;6.97;;;3.17;;
53044;SDS011;38930;52.766;6.884;2023-05-10T14:00:17;5.73;;;3.57;;
53044;SDS011;38930;52.766;6.884;2023-05-10T14:02:43;9.67;;;3.97;;
53044;SDS011;38930;52.766;6.884;2023-05-10T14:05:09;6.43;;;3.40;;
53044;SDS011;38930;52.766;6.884;2023-05-10T14:07:34;6.03;;;3.47;;
53044;SDS011;38930;52.766;6.884;2023-05-10T14:10:00;4.00;;;3.00;;
53044;SDS011;38930;52.766;6.884;2023-05-10T14:12:25;5.57;;;3.53;;
53044;SDS011;38930;52.766;6.884;2023-05-10T14:14:52;5.97;;;3.20;;
53044;SDS011;38930;52.766;6.884;2023-05-10T14:17:17;8.63;;;3.17;;
53044;SDS011;38930;52.766;6.884;2023-05-10T14:19:43;5.83;;;3.63;;
53044;SDS011;38930;52.766;6.884;2023-05-10T14:22:08;6.67;;;4.00;;
53044;SDS011;38930;52.766;6.884;2023-05-10T14:24:34;5.07;;;3.17;;
53044;SDS011;38930;52.766;6.884;2023-05-10T14:27:00;5.53;;;2.63;;
53044;SDS011;38930;52.766;6.884;2023-05-10T14:29:25;3.70;;;2.43;;
53044;SDS011;38930;52.766;6.884;2023-05-10T14:31:51;4.27;;;2.83;;
53044;SDS011;38930;52.766;6.884;2023-05-10T14:34:16;5.53;;;2.90;;
53044;SDS011;38930;52.766;6.884;2023-05-10T14:36:42;5.13;;;2.57;;
53044;SDS011;38930;52.766;6.884;2023-05-10T14:39:08;3.80;;;2.30;;
53044;SDS011;38930;52.766;6.884;2023-05-10T14:41:35;6.30;;;2.53;;
53044;SDS011;38930;52.766;6.884;2023-05-10T14:44:00;5.27;;;2.30;;
53044;SDS011;38930;52.766;6.884;2023-05-10T14:46:28;4.53;;;2.63;;
53044;SDS011;38930;52.766;6.884;2023-05-10T14:48:54;6.22;;;2.67;;
53044;SDS011;38930;52.766;6.884;2023-05-10T14:51:20;4.03;;;2.53;;
53044;SDS011;38930;52.766;6.884;2023-05-10T14:53:47;5.72;;;2.80;;
53044;SDS011;38930;52.766;6.884;2023-05-10T14:56:15;4.55;;;2.40;;
53044;SDS011;38930;52.766;6.884;2023-05-10T14:58:41;3.93;;;2.60;;
53044;SDS011;38930;52.766;6.884;2023-05-10T15:01:06;4.13;;;2.47;;
53044;SDS011;38930;52.766;6.884;2023-05-10T15:03:32;9.50;;;2.90;;
53044;SDS011;38930;52.766;6.884;2023-05-10T15:05:58;4.83;;;2.73;;
53044;SDS011;38930;52.766;6.884;2023-05-10T15:08:23;3.77;;;2.53;;
53044;SDS011;38930;52.766;6.884;2023-05-10T15:10:52;6.00;;;3.10;;
53044;SDS011;38930;52.766;6.884;2023-05-10T15:13:20;6.60;;;3.30;;
53044;SDS011;38930;52.766;6.884;2023-05-10T15:15:45;3.33;;;2.60;;
53044;SDS011;38930;52.766;6.884;2023-05-10T15:18:11;5.30;;;2.87;;
53044;SDS011;38930;52.766;6.884;2023-05-10T15:20:37;5.93;;;3.20;;
53044;SDS011;38930;52.766;6.884;2023-05-10T15:23:02;4.37;;;3.20;;
53044;SDS011;38930;52.766;6.884;2023-05-10T15:25:28;9.77;;;3.20;;
53044;SDS011;38930;52.766;6.884;2023-05-10T15:27:54;7.73;;;3.10;;
53044;SDS011;38930;52.766;6.884;2023-05-10T15:30:20;5.22;;;3.70;;
53044;SDS011;38930;52.766;6.884;2023-05-10T15:32:45;11.33;;;3.93;;
53044;SDS011;38930;52.766;6.884;2023-05-10T15:35:11;6.73;;;3.87;;
53044;SDS011;38930;52.766;6.884;2023-05-10T15:37:37;9.63;;;4.50;;
53044;SDS011;38930;52.766;6.884;2023-05-10T15:40:03;5.97;;;3.57;;
53044;SDS011;38930;52.766;6.884;2023-05-10T15:42:29;5.72;;;3.65;;
53044;SDS011;38930;52.766;6.884;2023-05-10T15:44:55;6.47;;;3.65;;
53044;SDS011;38930;52.766;6.884;2023-05-10T15:47:21;5.10;;;3.57;;
53044;SDS011;38930;52.766;6.884;2023-05-10T15:49:47;8.90;;;3.90;;
53044;SDS011;38930;52.766;6.884;2023-05-10T15:52:12;6.47;;;3.83;;
53044;SDS011;38930;52.766;6.884;2023-05-10T15:54:38;5.33;;;3.77;;
53044;SDS011;38930;52.766;6.884;2023-05-10T15:57:04;7.33;;;4.03;;
53044;SDS011;38930;52.766;6.884;2023-05-10T15:59:29;4.97;;;3.57;;
53044;SDS011;38930;52.766;6.884;2023-05-10T16:01:55;6.57;;;3.90;;